createdAt,value
2023-04-28T00:03:11.519Z,71.83
2023-04-28T00:07:09.255Z,72.18
2023-04-28T00:11:09.317Z,71.93
2023-04-28T00:15:07.151Z,72.08
2023-04-28T00:19:05.131Z,71.92
2023-04-28T00:23:03.122Z,71.71
2023-04-28T00:27:01.090Z,71.59
2023-04-28T00:30:59.178Z,71.65
2023-04-28T00:34:57.105Z,71.67
2023-04-28T00:38:55.142Z,71.88
2023-04-28T00:42:53.080Z,71.97
2023-04-28T00:46:51.232Z,71.96
2023-04-28T00:50:49.082Z,71.97
2023-04-28T00:54:50.158Z,71.96
2023-04-28T00:58:49.105Z,71.94
2023-04-28T01:02:47.205Z,72.01
2023-04-28T01:06:46.103Z,72.19
2023-04-28T01:10:44.212Z,72.34
2023-04-28T01:14:57.063Z,72.40
2023-04-28T01:19:01.077Z,72.41
2023-04-28T01:23:00.044Z,72.55
2023-04-28T01:27:00.384Z,72.76
2023-04-28T01:30:58.096Z,72.98
2023-04-28T01:34:56.155Z,73.14
2023-04-28T01:38:54.108Z,73.44
2023-04-28T01:42:52.015Z,73.52
2023-04-28T01:46:49.993Z,73.63
2023-04-28T01:50:48.150Z,73.83
2023-04-28T01:54:46.026Z,73.94
2023-04-28T01:58:44.251Z,73.95
2023-04-28T02:02:42.039Z,73.90
2023-04-28T02:06:39.980Z,73.87
2023-04-28T02:10:38.000Z,74.41
2023-04-28T02:14:36.013Z,74.43
2023-04-28T02:18:34.002Z,74.44
2023-04-28T02:22:32.048Z,74.55
2023-04-28T02:26:30.976Z,74.95
2023-04-28T02:30:28.997Z,75.30
2023-04-28T02:34:26.987Z,75.38
2023-04-28T02:38:25.931Z,75.65
2023-04-28T02:42:24.027Z,75.37
2023-04-28T02:46:22.013Z,76.09
2023-04-28T02:50:20.169Z,75.90
2023-04-28T02:54:18.184Z,76.39
2023-04-28T02:58:15.916Z,76.86
2023-04-28T03:02:13.967Z,77.19
2023-04-28T03:06:11.913Z,76.95
2023-04-28T03:10:09.913Z,76.73
2023-04-28T03:14:07.866Z,76.22
2023-04-28T03:18:05.937Z,75.87
2023-04-28T03:22:04.008Z,75.89
2023-04-28T03:26:02.903Z,75.97
2023-04-28T03:30:00.852Z,76.10
2023-04-28T03:33:58.866Z,76.04
2023-04-28T03:37:56.949Z,76.22
2023-04-28T03:41:54.874Z,76.31
2023-04-28T03:45:58.996Z,75.61
2023-04-28T03:49:56.917Z,71.99
2023-04-28T03:53:54.845Z,65.88
2023-04-28T03:57:52.826Z,59.20
2023-04-28T04:01:50.875Z,53.65
2023-04-28T04:05:49.033Z,50.21
2023-04-28T04:09:46.879Z,45.34
2023-04-28T04:13:44.840Z,41.29
2023-04-28T04:17:42.814Z,37.35
2023-04-28T04:21:40.826Z,34.07
2023-04-28T04:25:38.815Z,31.20
2023-04-28T04:29:36.819Z,28.95
2023-04-28T04:33:38.801Z,27.36
2023-04-28T04:37:37.770Z,26.27
2023-04-28T04:41:35.788Z,26.95
2023-04-28T04:45:49.816Z,26.41
2023-04-28T04:49:47.808Z,25.56
2023-04-28T04:53:45.785Z,24.93
2023-04-28T04:57:43.802Z,24.76
2023-04-28T05:01:53.866Z,26.52
2023-04-28T05:05:52.824Z,28.93
2023-04-28T05:09:56.864Z,32.38
2023-04-28T05:13:55.790Z,35.03
2023-04-28T05:17:54.372Z,36.74
2023-04-28T05:21:53.780Z,39.73
2023-04-28T05:25:51.787Z,42.02
2023-04-28T05:29:49.743Z,43.24
2023-04-28T05:33:47.751Z,44.34
2023-04-28T05:37:45.803Z,45.63
2023-04-28T05:41:43.753Z,47.07
2023-04-28T05:45:43.913Z,48.49
2023-04-28T05:49:41.691Z,49.09
2023-04-28T05:53:39.762Z,50.38
2023-04-28T05:57:49.265Z,50.21
2023-04-28T06:01:32.851Z,49.54
2023-04-28T06:04:57.212Z,48.97
2023-04-28T06:08:21.819Z,48.31
2023-04-28T06:11:46.824Z,47.95
2023-04-28T06:15:11.590Z,47.87
2023-04-28T06:18:36.401Z,47.83
2023-04-28T06:22:01.082Z,47.23
2023-04-28T06:25:25.408Z,46.93
2023-04-28T06:28:49.206Z,45.10
2023-04-28T06:32:13.109Z,46.51
2023-04-28T06:35:39.195Z,46.60
2023-04-28T06:39:03.074Z,43.61
2023-04-28T06:42:27.677Z,45.13
2023-04-28T06:46:02.848Z,44.32
2023-04-28T06:49:26.798Z,41.76
2023-04-28T06:52:57.405Z,41.79
2023-04-28T06:56:21.833Z,42.86
2023-04-28T06:59:47.296Z,44.14
2023-04-28T07:03:11.608Z,44.87
2023-04-28T07:06:36.088Z,44.99
2023-04-28T07:10:01.165Z,43.83
2023-04-28T07:13:25.320Z,40.47
2023-04-28T07:16:49.201Z,38.69
2023-04-28T07:20:14.076Z,40.08
2023-04-28T07:23:40.444Z,41.34
2023-04-28T07:27:04.687Z,40.47
2023-04-28T07:30:28.550Z,40.35
2023-04-28T07:33:52.645Z,39.90
2023-04-28T07:37:18.256Z,35.41
2023-04-28T07:40:44.457Z,33.32
2023-04-28T07:44:08.806Z,34.45
2023-04-28T07:47:32.786Z,34.63
2023-04-28T07:50:56.757Z,34.62
2023-04-28T07:54:20.893Z,35.20
2023-04-28T07:57:44.719Z,35.23
2023-04-28T08:01:08.749Z,35.03
2023-04-28T08:04:35.019Z,33.48
2023-04-28T08:08:00.598Z,32.66
2023-04-28T08:11:24.578Z,32.21
2023-04-28T08:14:48.690Z,32.84
2023-04-28T08:18:13.893Z,32.62
2023-04-28T08:21:37.861Z,33.78
2023-04-28T08:25:01.766Z,31.68
2023-04-28T08:28:25.622Z,33.48
2023-04-28T08:31:49.756Z,34.74
2023-04-28T08:35:15.518Z,33.01
2023-04-28T08:38:39.917Z,33.17
2023-04-28T08:42:06.973Z,31.79
2023-04-28T08:45:31.974Z,32.30
2023-04-28T08:49:02.231Z,32.05
2023-04-28T08:52:27.796Z,31.23
2023-04-28T08:55:58.705Z,31.23
2023-04-28T08:59:22.849Z,30.18
2023-04-28T09:02:46.871Z,31.01
2023-04-28T09:06:10.864Z,31.53
2023-04-28T09:09:37.135Z,31.15
2023-04-28T09:13:02.976Z,31.59
2023-04-28T09:16:41.576Z,31.44
2023-04-28T09:20:27.832Z,29.50
2023-04-28T09:23:52.209Z,27.77
2023-04-28T09:27:16.149Z,29.73
2023-04-28T09:30:41.390Z,29.85
2023-04-28T09:34:05.813Z,29.65
2023-04-28T09:37:31.308Z,30.33
2023-04-28T09:41:00.749Z,30.92
2023-04-28T09:44:24.824Z,30.89
2023-04-28T09:47:48.997Z,31.83
2023-04-28T09:51:13.293Z,31.26
2023-04-28T09:54:37.365Z,29.43
2023-04-28T09:58:08.067Z,30.58
2023-04-28T10:01:38.126Z,29.11
2023-04-28T10:05:02.455Z,30.48
2023-04-28T10:08:28.404Z,32.29
2023-04-28T10:11:52.691Z,33.45
2023-04-28T10:15:16.701Z,33.71
2023-04-28T10:18:41.204Z,33.95
2023-04-28T10:22:26.504Z,33.31
2023-04-28T10:26:08.884Z,32.87
2023-04-28T10:29:36.704Z,33.80
2023-04-28T10:33:16.320Z,33.52
2023-04-28T10:36:55.569Z,33.37
2023-04-28T10:40:41.281Z,33.15
2023-04-28T10:44:30.192Z,33.60
2023-04-28T10:48:06.576Z,34.09
2023-04-28T10:51:32.080Z,33.94
2023-04-28T10:55:22.047Z,33.87
2023-04-28T10:58:47.813Z,34.14
2023-04-28T11:02:42.627Z,33.54
2023-04-28T11:06:40.269Z,33.78
2023-04-28T11:10:04.278Z,33.19
2023-04-28T11:13:31.926Z,33.40
2023-04-28T11:17:00.719Z,33.59
2023-04-28T11:20:26.466Z,33.16
2023-04-28T11:23:50.655Z,33.45
2023-04-28T11:27:25.014Z,33.61
2023-04-28T11:30:49.008Z,34.85
2023-04-28T11:34:14.556Z,34.68
2023-04-28T11:37:39.190Z,34.32
2023-04-28T11:41:04.297Z,34.28
2023-04-28T11:44:30.920Z,35.04
2023-04-28T11:47:55.045Z,33.12
2023-04-28T11:51:41.708Z,32.20
2023-04-28T11:55:05.745Z,33.19
2023-04-28T11:58:29.679Z,33.91
2023-04-28T12:01:57.276Z,34.43
2023-04-28T12:05:22.690Z,34.26
2023-04-28T12:08:46.664Z,34.71
2023-04-28T12:12:17.239Z,35.18
2023-04-28T12:15:42.110Z,34.46
2023-04-28T12:19:10.099Z,32.55
2023-04-28T12:22:46.000Z,31.57
2023-04-28T12:26:10.223Z,31.78
2023-04-28T12:29:39.534Z,29.07
2023-04-28T12:33:04.503Z,30.30
2023-04-28T12:36:28.452Z,30.94
2023-04-28T12:39:52.207Z,30.30
2023-04-28T12:43:16.333Z,30.06
2023-04-28T12:46:41.265Z,31.90
2023-04-28T12:50:08.424Z,32.03
2023-04-28T12:53:32.348Z,31.20
2023-04-28T12:56:56.409Z,32.40
2023-04-28T13:00:23.365Z,32.50
2023-04-28T13:03:48.505Z,33.34
2023-04-28T13:07:13.261Z,33.07
2023-04-28T13:10:37.119Z,33.04
2023-04-28T13:14:01.065Z,32.66
2023-04-28T13:17:25.138Z,32.18
2023-04-28T13:20:48.984Z,32.08
2023-04-28T13:24:13.961Z,31.71
2023-04-28T13:27:38.868Z,32.16
2023-04-28T13:31:24.333Z,31.71
2023-04-28T13:35:22.266Z,32.29
2023-04-28T13:39:21.262Z,31.81
2023-04-28T13:43:19.196Z,31.93
2023-04-28T13:47:17.223Z,31.88
2023-04-28T13:51:15.311Z,30.83
2023-04-28T13:55:13.166Z,31.76
2023-04-28T13:59:12.287Z,31.93
2023-04-28T14:03:10.292Z,30.65
2023-04-28T14:07:09.157Z,30.79
2023-04-28T14:11:08.296Z,31.95
2023-04-28T14:15:07.204Z,32.15
2023-04-28T14:19:05.202Z,33.63
2023-04-28T14:23:03.134Z,33.46
2023-04-28T14:27:02.215Z,33.90
2023-04-28T14:31:00.165Z,34.33
2023-04-28T14:34:58.104Z,32.74
2023-04-28T14:38:58.186Z,33.26
2023-04-28T14:42:56.110Z,32.11
2023-04-28T14:46:54.132Z,31.80
2023-04-28T14:50:53.087Z,31.36
2023-04-28T14:54:51.149Z,30.96
2023-04-28T14:58:50.150Z,29.82
2023-04-28T15:02:48.255Z,29.66
2023-04-28T15:06:47.299Z,29.56
2023-04-28T15:10:52.105Z,30.23
2023-04-28T15:14:51.283Z,28.65
2023-04-28T15:18:49.132Z,28.36
2023-04-28T15:22:47.140Z,28.07
2023-04-28T15:26:45.135Z,26.91
2023-04-28T15:30:43.095Z,28.61
2023-04-28T15:34:41.081Z,29.09
2023-04-28T15:38:39.042Z,28.88
2023-04-28T15:42:37.247Z,28.25
2023-04-28T15:46:36.134Z,27.66
2023-04-28T15:50:41.146Z,26.74
2023-04-28T15:54:39.161Z,27.43
2023-04-28T15:58:37.341Z,28.69
2023-04-28T16:02:36.199Z,28.73
2023-04-28T16:06:34.056Z,28.07
2023-04-28T16:10:32.092Z,28.24
2023-04-28T16:14:30.064Z,29.19
2023-04-28T16:18:28.018Z,29.91
2023-04-28T16:22:26.081Z,30.23
2023-04-28T16:26:23.995Z,30.80
2023-04-28T16:30:23.069Z,31.75
2023-04-28T16:34:20.998Z,32.30
2023-04-28T16:38:20.041Z,33.29
2023-04-28T16:42:18.131Z,33.22
2023-04-28T16:46:16.156Z,33.65
2023-04-28T16:50:16.263Z,33.68
2023-04-28T16:54:14.066Z,34.25
2023-04-28T16:58:11.976Z,34.36
2023-04-28T17:02:14.043Z,35.10
2023-04-28T17:06:11.945Z,37.23
2023-04-28T17:10:11.097Z,38.01
2023-04-28T17:14:09.082Z,37.29
2023-04-28T17:18:07.158Z,38.49
2023-04-28T17:22:04.999Z,39.72
2023-04-28T17:26:03.952Z,41.40
2023-04-28T17:30:01.962Z,41.90
2023-04-28T17:34:00.014Z,43.30
2023-04-28T17:37:57.978Z,44.05
2023-04-28T17:41:56.060Z,44.12
2023-04-28T17:45:53.961Z,45.15
2023-04-28T17:49:52.987Z,45.85
2023-04-28T17:53:51.944Z,46.43
2023-04-28T17:57:50.052Z,46.75
2023-04-28T18:01:47.941Z,46.92
2023-04-28T18:05:45.957Z,46.68
2023-04-28T18:09:43.961Z,46.79
2023-04-28T18:13:41.916Z,48.45
2023-04-28T18:17:40.079Z,48.20
2023-04-28T18:21:38.898Z,46.61
2023-04-28T18:25:38.945Z,48.09
2023-04-28T18:29:36.871Z,48.79
2023-04-28T18:33:34.906Z,50.41
2023-04-28T18:37:32.932Z,50.18
2023-04-28T18:41:32.830Z,48.38
2023-04-28T18:45:30.952Z,48.18
2023-04-28T18:49:28.875Z,48.98
2023-04-28T18:53:27.974Z,50.47
2023-04-28T18:57:25.888Z,52.52
2023-04-28T19:01:31.000Z,51.35
2023-04-28T19:05:28.873Z,49.55
2023-04-28T19:09:29.820Z,49.38
2023-04-28T19:13:27.900Z,50.61
2023-04-28T19:49:25.100Z,50.26
2023-04-28T19:53:23.099Z,51.67
2023-04-28T19:57:21.134Z,51.45
2023-04-28T20:01:21.083Z,51.18
2023-04-28T20:05:19.099Z,52.02
2023-04-28T20:09:17.035Z,52.06
2023-04-28T20:13:15.114Z,51.39
2023-04-28T20:17:14.112Z,51.40
2023-04-28T20:21:12.033Z,50.98
2023-04-28T20:25:13.093Z,51.04
2023-04-28T20:29:12.169Z,51.21
2023-04-28T20:33:10.020Z,50.96
2023-04-28T20:37:11.033Z,51.72
2023-04-28T20:41:09.171Z,52.67
2023-04-28T20:45:06.988Z,52.44
2023-04-28T20:49:04.954Z,52.35
2023-04-28T20:53:03.102Z,53.44
2023-04-28T20:57:00.967Z,52.51
2023-04-28T21:00:58.992Z,52.52
2023-04-28T21:04:58.010Z,52.69
2023-04-28T21:08:56.020Z,53.14
2023-04-28T21:12:53.987Z,52.91
2023-04-28T21:16:52.081Z,53.56
2023-04-28T21:20:49.951Z,53.66
2023-04-28T21:24:48.028Z,53.98
2023-04-28T21:28:46.932Z,53.63
2023-04-28T21:32:44.956Z,54.49
2023-04-28T21:36:42.985Z,54.24
2023-04-28T21:40:41.082Z,54.67
2023-04-28T21:44:38.961Z,54.43
2023-04-28T21:48:36.930Z,53.91
2023-04-28T21:52:34.960Z,54.44
2023-04-28T21:56:32.936Z,54.80
2023-04-28T22:00:30.883Z,55.03
2023-04-28T22:04:31.177Z,55.10
2023-04-28T22:08:28.868Z,55.50
2023-04-28T22:12:27.068Z,57.66
2023-04-28T22:16:25.023Z,58.03
2023-04-28T22:20:22.927Z,57.80
2023-04-28T22:24:20.861Z,57.85
2023-04-28T22:28:20.882Z,57.51
2023-04-28T22:32:18.947Z,57.75
2023-04-28T22:36:17.897Z,59.24
2023-04-28T22:40:15.832Z,60.31
2023-04-28T22:44:13.875Z,58.61
2023-04-28T22:48:11.892Z,58.15
2023-04-28T22:52:09.816Z,58.09
2023-04-28T22:56:09.844Z,58.40
2023-04-28T23:00:09.823Z,57.81
2023-04-28T23:04:07.985Z,58.74
2023-04-28T23:08:05.812Z,58.42
2023-04-28T23:12:03.803Z,58.00
2023-04-28T23:16:01.865Z,59.11
2023-04-28T23:19:59.979Z,58.89
2023-04-28T23:23:59.939Z,60.15
2023-04-28T23:27:57.871Z,59.27
2023-04-28T23:31:58.925Z,59.38
2023-04-28T23:35:56.795Z,59.86
2023-04-28T23:39:54.882Z,60.20
2023-04-28T23:43:54.798Z,59.56
2023-04-28T23:47:52.836Z,59.41
2023-04-28T23:51:50.763Z,59.16
2023-04-28T23:55:48.850Z,60.29
2023-04-28T23:59:48.696Z,59.72
